sensor_id;sensor_type;location;lat;lon;timestamp;P1;durP1;ratioP1;P2;durP2;ratioP2
3547;SDS011;1788;49.400;11.092;2023-06-14T00:00:45;7.73;;;6.93;;
3547;SDS011;1788;49.400;11.092;2023-06-14T00:03:12;4.93;;;4.60;;
3547;SDS011;1788;49.400;11.092;2023-06-14T00:05:38;8.93;;;6.03;;
3547;SDS011;1788;49.400;11.092;2023-06-14T00:08:06;7.77;;;5.40;;
3547;SDS011;1788;49.400;11.092;2023-06-14T00:10:32;10.00;;;6.33;;
3547;SDS011;1788;49.400;11.092;2023-06-14T00:12:59;7.00;;;5.50;;
3547;SDS011;1788;49.400;11.092;2023-06-14T00:15:25;6.10;;;5.73;;
3547;SDS011;1788;49.400;11.092;2023-06-14T00:17:53;6.33;;;5.63;;
3547;SDS011;1788;49.400;11.092;2023-06-14T00:20:19;5.77;;;5.20;;
3547;SDS011;1788;49.400;11.092;2023-06-14T00:22:46;7.43;;;6.10;;
3547;SDS011;1788;49.400;11.092;2023-06-14T00:25:12;6.10;;;5.80;;
3547;SDS011;1788;49.400;11.092;2023-06-14T00:27:40;8.93;;;5.67;;
3547;SDS011;1788;49.400;11.092;2023-06-14T00:32:34;7.70;;;5.40;;
3547;SDS011;1788;49.400;11.092;2023-06-14T00:35:00;6.53;;;5.60;;
3547;SDS011;1788;49.400;11.092;2023-06-14T00:37:27;6.80;;;5.87;;
3547;SDS011;1788;49.400;11.092;2023-06-14T00:39:54;6.73;;;5.40;;
3547;SDS011;1788;49.400;11.092;2023-06-14T00:44:48;6.47;;;6.07;;
3547;SDS011;1788;49.400;11.092;2023-06-14T00:47:14;6.73;;;6.20;;
3547;SDS011;1788;49.400;11.092;2023-06-14T00:49:41;5.77;;;5.47;;
3547;SDS011;1788;49.400;11.092;2023-06-14T00:52:08;8.47;;;6.03;;
3547;SDS011;1788;49.400;11.092;2023-06-14T00:54:35;9.70;;;6.27;;
3547;SDS011;1788;49.400;11.092;2023-06-14T00:57:02;7.83;;;6.20;;
3547;SDS011;1788;49.400;11.092;2023-06-14T00:59:29;7.80;;;5.43;;
3547;SDS011;1788;49.400;11.092;2023-06-14T01:01:55;7.20;;;5.43;;
3547;SDS011;1788;49.400;11.092;2023-06-14T01:04:22;6.30;;;5.53;;
3547;SDS011;1788;49.400;11.092;2023-06-14T01:06:53;6.53;;;6.03;;
3547;SDS011;1788;49.400;11.092;2023-06-14T01:14:10;8.73;;;5.17;;
3547;SDS011;1788;49.400;11.092;2023-06-14T01:16:37;8.27;;;6.33;;
3547;SDS011;1788;49.400;11.092;2023-06-14T01:19:04;9.07;;;6.37;;
3547;SDS011;1788;49.400;11.092;2023-06-14T01:21:30;8.87;;;6.23;;
3547;SDS011;1788;49.400;11.092;2023-06-14T01:23:57;7.63;;;6.07;;
3547;SDS011;1788;49.400;11.092;2023-06-14T01:26:24;8.90;;;6.00;;
3547;SDS011;1788;49.400;11.092;2023-06-14T01:28:51;7.53;;;6.03;;
3547;SDS011;1788;49.400;11.092;2023-06-14T01:31:19;7.80;;;6.27;;
3547;SDS011;1788;49.400;11.092;2023-06-14T01:33:44;6.10;;;5.80;;
3547;SDS011;1788;49.400;11.092;2023-06-14T01:36:11;7.23;;;5.70;;
3547;SDS011;1788;49.400;11.092;2023-06-14T01:38:38;9.63;;;5.80;;
3547;SDS011;1788;49.400;11.092;2023-06-14T01:41:05;8.00;;;6.27;;
3547;SDS011;1788;49.400;11.092;2023-06-14T01:43:32;7.70;;;6.23;;
3547;SDS011;1788;49.400;11.092;2023-06-14T01:45:59;7.50;;;5.80;;
3547;SDS011;1788;49.400;11.092;2023-06-14T01:48:26;7.60;;;5.87;;
3547;SDS011;1788;49.400;11.092;2023-06-14T01:50:53;9.13;;;6.43;;
3547;SDS011;1788;49.400;11.092;2023-06-14T01:53:19;6.40;;;6.00;;
3547;SDS011;1788;49.400;11.092;2023-06-14T01:55:46;6.90;;;5.87;;
3547;SDS011;1788;49.400;11.092;2023-06-14T01:58:13;6.60;;;6.10;;
3547;SDS011;1788;49.400;11.092;2023-06-14T02:00:40;6.43;;;5.93;;
3547;SDS011;1788;49.400;11.092;2023-06-14T02:03:06;6.67;;;5.87;;
3547;SDS011;1788;49.400;11.092;2023-06-14T02:05:34;6.47;;;6.07;;
3547;SDS011;1788;49.400;11.092;2023-06-14T02:08:00;7.37;;;6.27;;
3547;SDS011;1788;49.400;11.092;2023-06-14T02:10:27;9.00;;;5.80;;
3547;SDS011;1788;49.400;11.092;2023-06-14T02:12:54;7.10;;;6.73;;
3547;SDS011;1788;49.400;11.092;2023-06-14T02:15:20;6.77;;;5.83;;
3547;SDS011;1788;49.400;11.092;2023-06-14T02:17:48;9.77;;;6.23;;
3547;SDS011;1788;49.400;11.092;2023-06-14T02:20:14;7.03;;;6.27;;
3547;SDS011;1788;49.400;11.092;2023-06-14T02:22:42;6.47;;;5.63;;
3547;SDS011;1788;49.400;11.092;2023-06-14T02:25:08;10.27;;;6.77;;
3547;SDS011;1788;49.400;11.092;2023-06-14T02:27:36;9.63;;;6.30;;
3547;SDS011;1788;49.400;11.092;2023-06-14T02:30:03;8.37;;;6.17;;
3547;SDS011;1788;49.400;11.092;2023-06-14T02:32:30;8.67;;;6.40;;
3547;SDS011;1788;49.400;11.092;2023-06-14T02:34:56;9.40;;;6.60;;
3547;SDS011;1788;49.400;11.092;2023-06-14T02:37:23;6.97;;;6.37;;
3547;SDS011;1788;49.400;11.092;2023-06-14T02:39:50;10.00;;;7.20;;
3547;SDS011;1788;49.400;11.092;2023-06-14T02:42:17;8.57;;;6.07;;
3547;SDS011;1788;49.400;11.092;2023-06-14T02:44:44;7.23;;;6.20;;
3547;SDS011;1788;49.400;11.092;2023-06-14T02:47:11;5.87;;;5.57;;
3547;SDS011;1788;49.400;11.092;2023-06-14T02:49:38;6.63;;;6.07;;
3547;SDS011;1788;49.400;11.092;2023-06-14T02:52:04;7.83;;;5.97;;
3547;SDS011;1788;49.400;11.092;2023-06-14T02:54:31;8.10;;;6.20;;
3547;SDS011;1788;49.400;11.092;2023-06-14T02:56:58;8.87;;;6.43;;
3547;SDS011;1788;49.400;11.092;2023-06-14T02:59:25;9.70;;;6.03;;
3547;SDS011;1788;49.400;11.092;2023-06-14T03:01:52;7.67;;;6.53;;
3547;SDS011;1788;49.400;11.092;2023-06-14T03:04:19;10.13;;;6.43;;
3547;SDS011;1788;49.400;11.092;2023-06-14T03:06:46;5.83;;;5.57;;
3547;SDS011;1788;49.400;11.092;2023-06-14T03:09:13;8.07;;;6.90;;
3547;SDS011;1788;49.400;11.092;2023-06-14T03:11:39;8.63;;;6.27;;
3547;SDS011;1788;49.400;11.092;2023-06-14T03:14:06;9.43;;;6.50;;
3547;SDS011;1788;49.400;11.092;2023-06-14T03:16:34;10.37;;;6.37;;
3547;SDS011;1788;49.400;11.092;2023-06-14T03:19:00;7.30;;;6.63;;
3547;SDS011;1788;49.400;11.092;2023-06-14T03:21:27;9.23;;;7.27;;
3547;SDS011;1788;49.400;11.092;2023-06-14T03:23:53;8.73;;;6.53;;
3547;SDS011;1788;49.400;11.092;2023-06-14T03:26:21;7.10;;;6.70;;
3547;SDS011;1788;49.400;11.092;2023-06-14T03:28:47;10.63;;;6.30;;
3547;SDS011;1788;49.400;11.092;2023-06-14T03:31:14;8.53;;;6.30;;
3547;SDS011;1788;49.400;11.092;2023-06-14T03:33:41;8.33;;;6.17;;
3547;SDS011;1788;49.400;11.092;2023-06-14T03:36:07;9.90;;;8.30;;
3547;SDS011;1788;49.400;11.092;2023-06-14T03:38:34;9.53;;;7.13;;
3547;SDS011;1788;49.400;11.092;2023-06-14T03:41:00;8.83;;;7.00;;
3547;SDS011;1788;49.400;11.092;2023-06-14T03:43:27;9.30;;;6.53;;
3547;SDS011;1788;49.400;11.092;2023-06-14T03:45:54;7.17;;;6.00;;
3547;SDS011;1788;49.400;11.092;2023-06-14T03:48:20;8.70;;;6.63;;
3547;SDS011;1788;49.400;11.092;2023-06-14T03:50:47;10.37;;;6.77;;
3547;SDS011;1788;49.400;11.092;2023-06-14T03:53:13;7.03;;;6.20;;
3547;SDS011;1788;49.400;11.092;2023-06-14T03:55:40;11.37;;;6.60;;
3547;SDS011;1788;49.400;11.092;2023-06-14T03:58:08;6.50;;;6.03;;
3547;SDS011;1788;49.400;11.092;2023-06-14T04:00:34;7.60;;;6.43;;
3547;SDS011;1788;49.400;11.092;2023-06-14T04:03:01;7.33;;;6.17;;
3547;SDS011;1788;49.400;11.092;2023-06-14T04:05:27;8.40;;;6.90;;
3547;SDS011;1788;49.400;11.092;2023-06-14T04:07:55;9.33;;;6.90;;
3547;SDS011;1788;49.400;11.092;2023-06-14T04:10:21;9.60;;;6.60;;
3547;SDS011;1788;49.400;11.092;2023-06-14T04:12:49;8.50;;;6.03;;
3547;SDS011;1788;49.400;11.092;2023-06-14T04:15:15;7.80;;;6.13;;
3547;SDS011;1788;49.400;11.092;2023-06-14T04:17:44;7.03;;;6.63;;
3547;SDS011;1788;49.400;11.092;2023-06-14T04:20:10;7.97;;;6.17;;
3547;SDS011;1788;49.400;11.092;2023-06-14T04:22:37;10.70;;;7.30;;
3547;SDS011;1788;49.400;11.092;2023-06-14T04:25:04;9.07;;;6.30;;
3547;SDS011;1788;49.400;11.092;2023-06-14T04:27:30;10.20;;;5.90;;
3547;SDS011;1788;49.400;11.092;2023-06-14T04:29:58;8.67;;;7.00;;
3547;SDS011;1788;49.400;11.092;2023-06-14T04:32:26;8.53;;;6.57;;
3547;SDS011;1788;49.400;11.092;2023-06-14T04:37:20;6.37;;;6.03;;
3547;SDS011;1788;49.400;11.092;2023-06-14T04:39:46;6.13;;;5.70;;
3547;SDS011;1788;49.400;11.092;2023-06-14T04:42:13;6.37;;;6.00;;
3547;SDS011;1788;49.400;11.092;2023-06-14T04:44:41;11.13;;;7.07;;
3547;SDS011;1788;49.400;11.092;2023-06-14T04:47:08;9.17;;;6.60;;
3547;SDS011;1788;49.400;11.092;2023-06-14T04:49:34;7.97;;;6.60;;
3547;SDS011;1788;49.400;11.092;2023-06-14T04:52:01;7.87;;;6.13;;
3547;SDS011;1788;49.400;11.092;2023-06-14T04:54:28;5.83;;;5.53;;
3547;SDS011;1788;49.400;11.092;2023-06-14T04:56:55;8.27;;;6.20;;
3547;SDS011;1788;49.400;11.092;2023-06-14T04:59:22;10.13;;;6.43;;
3547;SDS011;1788;49.400;11.092;2023-06-14T05:01:49;5.77;;;5.47;;
3547;SDS011;1788;49.400;11.092;2023-06-14T05:04:16;7.50;;;6.10;;
3547;SDS011;1788;49.400;11.092;2023-06-14T05:06:43;8.17;;;6.73;;
3547;SDS011;1788;49.400;11.092;2023-06-14T05:09:09;7.63;;;5.93;;
3547;SDS011;1788;49.400;11.092;2023-06-14T05:11:36;9.03;;;5.90;;
3547;SDS011;1788;49.400;11.092;2023-06-14T05:14:03;6.30;;;5.53;;
3547;SDS011;1788;49.400;11.092;2023-06-14T05:16:30;8.10;;;5.63;;
3547;SDS011;1788;49.400;11.092;2023-06-14T05:18:57;7.00;;;5.47;;
3547;SDS011;1788;49.400;11.092;2023-06-14T05:21:24;7.03;;;5.60;;
3547;SDS011;1788;49.400;11.092;2023-06-14T05:23:51;7.70;;;5.83;;
3547;SDS011;1788;49.400;11.092;2023-06-14T05:26:18;7.57;;;5.50;;
3547;SDS011;1788;49.400;11.092;2023-06-14T05:28:44;9.23;;;6.03;;
3547;SDS011;1788;49.400;11.092;2023-06-14T05:31:11;6.97;;;5.50;;
3547;SDS011;1788;49.400;11.092;2023-06-14T05:33:38;6.90;;;5.70;;
3547;SDS011;1788;49.400;11.092;2023-06-14T05:36:05;7.67;;;6.20;;
3547;SDS011;1788;49.400;11.092;2023-06-14T05:38:33;7.43;;;5.50;;
3547;SDS011;1788;49.400;11.092;2023-06-14T05:41:00;9.07;;;6.30;;
3547;SDS011;1788;49.400;11.092;2023-06-14T05:43:27;5.83;;;5.00;;
3547;SDS011;1788;49.400;11.092;2023-06-14T05:45:53;7.50;;;6.00;;
3547;SDS011;1788;49.400;11.092;2023-06-14T05:48:20;8.80;;;6.33;;
3547;SDS011;1788;49.400;11.092;2023-06-14T05:50:47;7.30;;;6.20;;
3547;SDS011;1788;49.400;11.092;2023-06-14T05:53:13;7.37;;;5.70;;
3547;SDS011;1788;49.400;11.092;2023-06-14T05:55:40;8.00;;;5.67;;
3547;SDS011;1788;49.400;11.092;2023-06-14T05:58:07;5.50;;;5.20;;
3547;SDS011;1788;49.400;11.092;2023-06-14T06:00:34;7.47;;;6.40;;
3547;SDS011;1788;49.400;11.092;2023-06-14T06:03:01;6.17;;;5.40;;
3547;SDS011;1788;49.400;11.092;2023-06-14T06:05:29;9.17;;;6.00;;
3547;SDS011;1788;49.400;11.092;2023-06-14T06:07:56;8.03;;;6.07;;
3547;SDS011;1788;49.400;11.092;2023-06-14T06:10:23;7.40;;;5.53;;
3547;SDS011;1788;49.400;11.092;2023-06-14T06:12:50;6.00;;;5.73;;
3547;SDS011;1788;49.400;11.092;2023-06-14T06:15:16;7.07;;;5.63;;
3547;SDS011;1788;49.400;11.092;2023-06-14T06:17:43;6.57;;;5.33;;
3547;SDS011;1788;49.400;11.092;2023-06-14T06:20:10;7.90;;;5.93;;
3547;SDS011;1788;49.400;11.092;2023-06-14T06:22:37;6.33;;;5.83;;
3547;SDS011;1788;49.400;11.092;2023-06-14T06:25:04;6.07;;;5.57;;
3547;SDS011;1788;49.400;11.092;2023-06-14T06:27:30;9.50;;;5.83;;
3547;SDS011;1788;49.400;11.092;2023-06-14T06:29:57;8.00;;;6.03;;
3547;SDS011;1788;49.400;11.092;2023-06-14T06:32:24;6.30;;;5.30;;
3547;SDS011;1788;49.400;11.092;2023-06-14T06:34:50;6.27;;;5.63;;
3547;SDS011;1788;49.400;11.092;2023-06-14T06:37:17;7.63;;;5.40;;
3547;SDS011;1788;49.400;11.092;2023-06-14T06:39:43;6.77;;;5.90;;
3547;SDS011;1788;49.400;11.092;2023-06-14T06:42:11;7.00;;;5.67;;
3547;SDS011;1788;49.400;11.092;2023-06-14T06:44:37;5.27;;;4.80;;
3547;SDS011;1788;49.400;11.092;2023-06-14T06:47:04;7.70;;;5.73;;
3547;SDS011;1788;49.400;11.092;2023-06-14T06:49:31;5.57;;;5.13;;
3547;SDS011;1788;49.400;11.092;2023-06-14T06:54:25;5.53;;;5.23;;
3547;SDS011;1788;49.400;11.092;2023-06-14T06:56:51;6.13;;;4.87;;
3547;SDS011;1788;49.400;11.092;2023-06-14T06:59:18;5.20;;;4.90;;
3547;SDS011;1788;49.400;11.092;2023-06-14T07:01:45;6.40;;;4.83;;
3547;SDS011;1788;49.400;11.092;2023-06-14T07:04:12;5.50;;;5.20;;
3547;SDS011;1788;49.400;11.092;2023-06-14T07:06:39;7.90;;;5.17;;
3547;SDS011;1788;49.400;11.092;2023-06-14T07:09:06;5.97;;;4.77;;
3547;SDS011;1788;49.400;11.092;2023-06-14T07:11:32;6.47;;;4.73;;
3547;SDS011;1788;49.400;11.092;2023-06-14T07:13:59;5.30;;;4.93;;
3547;SDS011;1788;49.400;11.092;2023-06-14T07:16:26;7.37;;;4.97;;
3547;SDS011;1788;49.400;11.092;2023-06-14T07:18:52;7.10;;;5.13;;
3547;SDS011;1788;49.400;11.092;2023-06-14T07:21:19;5.07;;;4.77;;
3547;SDS011;1788;49.400;11.092;2023-06-14T07:23:45;6.27;;;5.03;;
3547;SDS011;1788;49.400;11.092;2023-06-14T07:26:12;6.77;;;5.70;;
3547;SDS011;1788;49.400;11.092;2023-06-14T07:28:39;6.87;;;5.10;;
3547;SDS011;1788;49.400;11.092;2023-06-14T07:31:06;4.87;;;4.57;;
3547;SDS011;1788;49.400;11.092;2023-06-14T07:33:33;5.43;;;4.73;;
3547;SDS011;1788;49.400;11.092;2023-06-14T07:36:00;5.63;;;5.33;;
3547;SDS011;1788;49.400;11.092;2023-06-14T07:38:27;6.27;;;4.47;;
3547;SDS011;1788;49.400;11.092;2023-06-14T07:40:53;4.60;;;4.30;;
3547;SDS011;1788;49.400;11.092;2023-06-14T07:43:20;6.70;;;4.90;;
3547;SDS011;1788;49.400;11.092;2023-06-14T07:45:47;5.07;;;4.60;;
3547;SDS011;1788;49.400;11.092;2023-06-14T07:48:14;8.43;;;5.00;;
3547;SDS011;1788;49.400;11.092;2023-06-14T07:50:41;5.70;;;5.00;;
3547;SDS011;1788;49.400;11.092;2023-06-14T07:53:08;6.60;;;5.00;;
3547;SDS011;1788;49.400;11.092;2023-06-14T07:55:35;4.70;;;4.40;;
3547;SDS011;1788;49.400;11.092;2023-06-14T07:58:02;5.47;;;4.50;;
3547;SDS011;1788;49.400;11.092;2023-06-14T08:00:28;5.33;;;5.03;;
3547;SDS011;1788;49.400;11.092;2023-06-14T08:02:55;7.87;;;5.10;;
3547;SDS011;1788;49.400;11.092;2023-06-14T08:05:22;5.47;;;4.97;;
3547;SDS011;1788;49.400;11.092;2023-06-14T08:07:49;5.60;;;5.17;;
3547;SDS011;1788;49.400;11.092;2023-06-14T08:10:16;8.27;;;5.03;;
3547;SDS011;1788;49.400;11.092;2023-06-14T08:12:43;6.63;;;4.93;;
3547;SDS011;1788;49.400;11.092;2023-06-14T08:15:10;6.63;;;5.07;;
3547;SDS011;1788;49.400;11.092;2023-06-14T08:17:37;7.03;;;4.43;;
3547;SDS011;1788;49.400;11.092;2023-06-14T08:20:04;5.67;;;4.50;;
3547;SDS011;1788;49.400;11.092;2023-06-14T08:22:30;5.83;;;4.23;;
3547;SDS011;1788;49.400;11.092;2023-06-14T08:24:57;4.97;;;4.57;;
3547;SDS011;1788;49.400;11.092;2023-06-14T08:27:23;4.73;;;4.20;;
3547;SDS011;1788;49.400;11.092;2023-06-14T08:29:51;5.57;;;4.37;;
3547;SDS011;1788;49.400;11.092;2023-06-14T08:32:17;5.47;;;4.50;;
3547;SDS011;1788;49.400;11.092;2023-06-14T08:34:45;6.97;;;4.60;;
3547;SDS011;1788;49.400;11.092;2023-06-14T08:37:11;5.50;;;4.10;;
3547;SDS011;1788;49.400;11.092;2023-06-14T08:39:38;4.83;;;4.53;;
3547;SDS011;1788;49.400;11.092;2023-06-14T08:42:05;4.53;;;4.23;;
3547;SDS011;1788;49.400;11.092;2023-06-14T08:44:31;4.87;;;4.57;;
3547;SDS011;1788;49.400;11.092;2023-06-14T08:46:59;4.80;;;4.50;;
3547;SDS011;1788;49.400;11.092;2023-06-14T08:49:25;6.70;;;4.87;;
3547;SDS011;1788;49.400;11.092;2023-06-14T08:51:55;4.03;;;3.83;;
3547;SDS011;1788;49.400;11.092;2023-06-14T08:54:19;4.97;;;4.47;;
3547;SDS011;1788;49.400;11.092;2023-06-14T08:56:47;5.10;;;4.57;;
3547;SDS011;1788;49.400;11.092;2023-06-14T08:59:13;5.87;;;4.20;;
3547;SDS011;1788;49.400;11.092;2023-06-14T09:01:40;5.03;;;4.50;;
3547;SDS011;1788;49.400;11.092;2023-06-14T09:04:06;6.23;;;4.70;;
3547;SDS011;1788;49.400;11.092;2023-06-14T09:06:33;6.07;;;4.53;;
3547;SDS011;1788;49.400;11.092;2023-06-14T09:09:00;7.60;;;5.20;;
3547;SDS011;1788;49.400;11.092;2023-06-14T09:11:27;5.53;;;4.70;;
3547;SDS011;1788;49.400;11.092;2023-06-14T09:13:54;7.70;;;4.93;;
3547;SDS011;1788;49.400;11.092;2023-06-14T09:16:20;4.73;;;4.43;;
3547;SDS011;1788;49.400;11.092;2023-06-14T09:18:47;4.93;;;4.53;;
3547;SDS011;1788;49.400;11.092;2023-06-14T09:21:14;5.97;;;4.93;;
3547;SDS011;1788;49.400;11.092;2023-06-14T09:23:41;5.20;;;4.70;;
3547;SDS011;1788;49.400;11.092;2023-06-14T09:28:33;5.67;;;4.90;;
3547;SDS011;1788;49.400;11.092;2023-06-14T09:31:01;5.37;;;4.67;;
3547;SDS011;1788;49.400;11.092;2023-06-14T09:33:27;4.97;;;4.67;;
3547;SDS011;1788;49.400;11.092;2023-06-14T09:35:55;4.90;;;4.60;;
3547;SDS011;1788;49.400;11.092;2023-06-14T09:38:21;5.77;;;4.43;;
3547;SDS011;1788;49.400;11.092;2023-06-14T09:40:49;4.47;;;4.17;;
3547;SDS011;1788;49.400;11.092;2023-06-14T09:43:15;5.70;;;5.07;;
3547;SDS011;1788;49.400;11.092;2023-06-14T09:45:41;6.00;;;4.90;;
3547;SDS011;1788;49.400;11.092;2023-06-14T09:48:09;6.60;;;5.10;;
3547;SDS011;1788;49.400;11.092;2023-06-14T09:50:35;4.30;;;4.03;;
3547;SDS011;1788;49.400;11.092;2023-06-14T09:53:05;4.77;;;4.37;;
3547;SDS011;1788;49.400;11.092;2023-06-14T09:55:30;5.40;;;4.27;;
3547;SDS011;1788;49.400;11.092;2023-06-14T09:57:57;5.33;;;4.50;;
3547;SDS011;1788;49.400;11.092;2023-06-14T10:00:23;5.37;;;4.77;;
3547;SDS011;1788;49.400;11.092;2023-06-14T10:02:55;4.90;;;4.60;;
3547;SDS011;1788;49.400;11.092;2023-06-14T10:05:16;5.90;;;4.77;;
3547;SDS011;1788;49.400;11.092;2023-06-14T10:10:10;5.03;;;4.43;;
3547;SDS011;1788;49.400;11.092;2023-06-14T10:12:37;5.73;;;4.53;;
3547;SDS011;1788;49.400;11.092;2023-06-14T10:15:04;5.03;;;4.60;;
3547;SDS011;1788;49.400;11.092;2023-06-14T10:17:33;6.27;;;4.70;;
3547;SDS011;1788;49.400;11.092;2023-06-14T10:24:52;5.07;;;4.77;;
3547;SDS011;1788;49.400;11.092;2023-06-14T10:27:18;5.60;;;4.70;;
3547;SDS011;1788;49.400;11.092;2023-06-14T10:32:12;7.67;;;4.50;;
3547;SDS011;1788;49.400;11.092;2023-06-14T10:34:39;4.90;;;4.60;;
3547;SDS011;1788;49.400;11.092;2023-06-14T10:37:07;5.07;;;4.47;;
3547;SDS011;1788;49.400;11.092;2023-06-14T10:42:01;5.53;;;4.70;;
3547;SDS011;1788;49.400;11.092;2023-06-14T10:46:53;4.97;;;4.57;;
3547;SDS011;1788;49.400;11.092;2023-06-14T10:49:21;6.13;;;4.87;;
3547;SDS011;1788;49.400;11.092;2023-06-14T10:54:14;5.73;;;4.83;;
3547;SDS011;1788;49.400;11.092;2023-06-14T10:59:08;5.57;;;5.20;;
3547;SDS011;1788;49.400;11.092;2023-06-14T11:01:36;6.27;;;4.50;;
3547;SDS011;1788;49.400;11.092;2023-06-14T11:04:09;6.87;;;4.40;;
3547;SDS011;1788;49.400;11.092;2023-06-14T11:06:28;7.13;;;4.77;;
3547;SDS011;1788;49.400;11.092;2023-06-14T11:11:22;7.13;;;5.03;;
3547;SDS011;1788;49.400;11.092;2023-06-14T11:13:48;4.80;;;4.50;;
3547;SDS011;1788;49.400;11.092;2023-06-14T11:16:16;5.97;;;4.70;;
3547;SDS011;1788;49.400;11.092;2023-06-14T11:18:43;5.03;;;4.03;;
3547;SDS011;1788;49.400;11.092;2023-06-14T11:21:10;4.63;;;4.33;;
3547;SDS011;1788;49.400;11.092;2023-06-14T11:23:36;3.43;;;3.23;;
3547;SDS011;1788;49.400;11.092;2023-06-14T11:26:03;3.90;;;3.70;;
3547;SDS011;1788;49.400;11.092;2023-06-14T11:33:24;3.83;;;3.63;;
3547;SDS011;1788;49.400;11.092;2023-06-14T11:35:50;4.90;;;4.60;;
3547;SDS011;1788;49.400;11.092;2023-06-14T11:38:18;5.60;;;3.80;;
3547;SDS011;1788;49.400;11.092;2023-06-14T11:40:44;5.17;;;4.70;;
3547;SDS011;1788;49.400;11.092;2023-06-14T11:43:12;4.57;;;3.93;;
3547;SDS011;1788;49.400;11.092;2023-06-14T11:45:38;3.43;;;3.23;;
3547;SDS011;1788;49.400;11.092;2023-06-14T11:48:06;4.47;;;3.97;;
3547;SDS011;1788;49.400;11.092;2023-06-14T11:50:31;4.67;;;4.37;;
3547;SDS011;1788;49.400;11.092;2023-06-14T11:52:59;4.70;;;4.40;;
3547;SDS011;1788;49.400;11.092;2023-06-14T11:55:25;9.27;;;5.30;;
3547;SDS011;1788;49.400;11.092;2023-06-14T12:00:19;5.23;;;4.90;;
3547;SDS011;1788;49.400;11.092;2023-06-14T12:05:13;4.60;;;4.27;;
3547;SDS011;1788;49.400;11.092;2023-06-14T12:07:40;6.30;;;4.80;;
3547;SDS011;1788;49.400;11.092;2023-06-14T12:10:07;4.83;;;4.23;;
3547;SDS011;1788;49.400;11.092;2023-06-14T12:12:35;4.97;;;3.87;;
3547;SDS011;1788;49.400;11.092;2023-06-14T12:15:02;6.93;;;4.63;;
3547;SDS011;1788;49.400;11.092;2023-06-14T12:17:31;4.87;;;4.57;;
3547;SDS011;1788;49.400;11.092;2023-06-14T12:19:54;4.67;;;4.40;;
3547;SDS011;1788;49.400;11.092;2023-06-14T12:22:22;6.03;;;4.57;;
3547;SDS011;1788;49.400;11.092;2023-06-14T12:24:48;4.83;;;4.57;;
3547;SDS011;1788;49.400;11.092;2023-06-14T12:27:16;6.27;;;4.47;;
3547;SDS011;1788;49.400;11.092;2023-06-14T12:29:43;6.00;;;4.70;;
3547;SDS011;1788;49.400;11.092;2023-06-14T12:32:10;6.30;;;4.73;;
3547;SDS011;1788;49.400;11.092;2023-06-14T12:34:37;5.07;;;4.77;;
3547;SDS011;1788;49.400;11.092;2023-06-14T12:37:03;4.50;;;4.17;;
3547;SDS011;1788;49.400;11.092;2023-06-14T12:39:30;5.43;;;4.77;;
3547;SDS011;1788;49.400;11.092;2023-06-14T12:41:57;4.40;;;4.13;;
3547;SDS011;1788;49.400;11.092;2023-06-14T12:44:24;7.20;;;4.40;;
3547;SDS011;1788;49.400;11.092;2023-06-14T12:46:51;4.63;;;4.33;;
3547;SDS011;1788;49.400;11.092;2023-06-14T12:49:18;7.17;;;4.50;;
3547;SDS011;1788;49.400;11.092;2023-06-14T12:51:44;4.53;;;4.17;;
3547;SDS011;1788;49.400;11.092;2023-06-14T12:54:11;5.43;;;4.17;;
3547;SDS011;1788;49.400;11.092;2023-06-14T12:56:38;6.57;;;4.70;;
3547;SDS011;1788;49.400;11.092;2023-06-14T12:59:04;4.17;;;3.93;;
3547;SDS011;1788;49.400;11.092;2023-06-14T13:01:31;5.50;;;4.53;;
3547;SDS011;1788;49.400;11.092;2023-06-14T13:03:58;4.83;;;4.43;;
3547;SDS011;1788;49.400;11.092;2023-06-14T13:06:25;4.60;;;4.20;;
3547;SDS011;1788;49.400;11.092;2023-06-14T13:08:52;5.30;;;4.10;;
3547;SDS011;1788;49.400;11.092;2023-06-14T13:11:19;5.53;;;4.40;;
3547;SDS011;1788;49.400;11.092;2023-06-14T13:13:45;4.33;;;3.80;;
3547;SDS011;1788;49.400;11.092;2023-06-14T13:16:12;4.80;;;4.20;;
3547;SDS011;1788;49.400;11.092;2023-06-14T13:18:39;4.70;;;4.30;;
3547;SDS011;1788;49.400;11.092;2023-06-14T13:21:06;4.03;;;3.83;;
3547;SDS011;1788;49.400;11.092;2023-06-14T13:23:33;3.93;;;3.77;;
3547;SDS011;1788;49.400;11.092;2023-06-14T13:26:00;6.27;;;4.30;;
3547;SDS011;1788;49.400;11.092;2023-06-14T13:28:27;4.00;;;3.80;;
3547;SDS011;1788;49.400;11.092;2023-06-14T13:30:54;5.73;;;4.20;;
3547;SDS011;1788;49.400;11.092;2023-06-14T13:33:21;4.70;;;4.10;;
3547;SDS011;1788;49.400;11.092;2023-06-14T13:35:47;4.67;;;4.23;;
3547;SDS011;1788;49.400;11.092;2023-06-14T13:38:14;4.67;;;4.37;;
3547;SDS011;1788;49.400;11.092;2023-06-14T13:40:40;3.93;;;3.73;;
3547;SDS011;1788;49.400;11.092;2023-06-14T13:43:08;4.60;;;4.30;;
3547;SDS011;1788;49.400;11.092;2023-06-14T13:45:34;4.70;;;4.40;;
3547;SDS011;1788;49.400;11.092;2023-06-14T13:48:02;4.33;;;4.07;;
3547;SDS011;1788;49.400;11.092;2023-06-14T13:50:28;5.40;;;4.80;;
3547;SDS011;1788;49.400;11.092;2023-06-14T13:52:55;4.10;;;3.90;;
3547;SDS011;1788;49.400;11.092;2023-06-14T13:55:22;4.70;;;4.40;;
3547;SDS011;1788;49.400;11.092;2023-06-14T13:57:48;5.40;;;4.50;;
3547;SDS011;1788;49.400;11.092;2023-06-14T14:00:16;5.00;;;4.13;;
3547;SDS011;1788;49.400;11.092;2023-06-14T14:02:42;4.73;;;4.13;;
3547;SDS011;1788;49.400;11.092;2023-06-14T14:05:10;6.87;;;4.27;;
3547;SDS011;1788;49.400;11.092;2023-06-14T14:07:36;5.23;;;4.70;;
3547;SDS011;1788;49.400;11.092;2023-06-14T14:10:04;4.43;;;4.13;;
3547;SDS011;1788;49.400;11.092;2023-06-14T14:12:30;5.67;;;4.37;;
3547;SDS011;1788;49.400;11.092;2023-06-14T14:14:57;5.00;;;4.37;;
3547;SDS011;1788;49.400;11.092;2023-06-14T14:17:23;4.57;;;4.27;;
3547;SDS011;1788;49.400;11.092;2023-06-14T14:19:50;5.93;;;4.87;;
3547;SDS011;1788;49.400;11.092;2023-06-14T14:22:17;6.60;;;4.13;;
3547;SDS011;1788;49.400;11.092;2023-06-14T14:24:44;4.03;;;3.87;;
3547;SDS011;1788;49.400;11.092;2023-06-14T14:27:11;4.00;;;3.80;;
3547;SDS011;1788;49.400;11.092;2023-06-14T14:29:38;4.73;;;4.43;;
3547;SDS011;1788;49.400;11.092;2023-06-14T14:32:05;4.00;;;3.80;;
3547;SDS011;1788;49.400;11.092;2023-06-14T14:34:32;5.13;;;4.80;;
3547;SDS011;1788;49.400;11.092;2023-06-14T14:36:59;4.83;;;4.33;;
3547;SDS011;1788;49.400;11.092;2023-06-14T14:39:26;4.70;;;4.37;;
3547;SDS011;1788;49.400;11.092;2023-06-14T14:41:53;4.53;;;4.23;;
3547;SDS011;1788;49.400;11.092;2023-06-14T14:44:20;4.57;;;4.27;;
3547;SDS011;1788;49.400;11.092;2023-06-14T14:46:46;5.10;;;4.30;;
3547;SDS011;1788;49.400;11.092;2023-06-14T14:49:13;7.13;;;4.03;;
3547;SDS011;1788;49.400;11.092;2023-06-14T14:51:40;5.10;;;3.93;;
3547;SDS011;1788;49.400;11.092;2023-06-14T14:54:07;4.53;;;4.23;;
3547;SDS011;1788;49.400;11.092;2023-06-14T14:56:34;4.87;;;4.37;;
3547;SDS011;1788;49.400;11.092;2023-06-14T14:59:01;5.13;;;4.73;;
3547;SDS011;1788;49.400;11.092;2023-06-14T15:01:27;5.47;;;4.37;;
3547;SDS011;1788;49.400;11.092;2023-06-14T15:03:54;5.37;;;4.17;;
3547;SDS011;1788;49.400;11.092;2023-06-14T15:06:21;4.30;;;4.00;;
3547;SDS011;1788;49.400;11.092;2023-06-14T15:08:48;4.53;;;4.23;;
3547;SDS011;1788;49.400;11.092;2023-06-14T15:11:15;4.23;;;3.97;;
3547;SDS011;1788;49.400;11.092;2023-06-14T15:13:42;3.80;;;3.67;;
3547;SDS011;1788;49.400;11.092;2023-06-14T15:16:09;6.03;;;4.73;;
3547;SDS011;1788;49.400;11.092;2023-06-14T15:18:36;4.07;;;3.77;;
3547;SDS011;1788;49.400;11.092;2023-06-14T15:21:03;5.17;;;3.80;;
3547;SDS011;1788;49.400;11.092;2023-06-14T15:23:30;5.50;;;4.20;;
3547;SDS011;1788;49.400;11.092;2023-06-14T15:25:57;4.57;;;4.00;;
3547;SDS011;1788;49.400;11.092;2023-06-14T15:28:23;5.07;;;4.07;;
3547;SDS011;1788;49.400;11.092;2023-06-14T15:30:50;4.43;;;3.97;;
3547;SDS011;1788;49.400;11.092;2023-06-14T15:33:16;3.97;;;3.73;;
3547;SDS011;1788;49.400;11.092;2023-06-14T15:35:43;4.73;;;3.67;;
3547;SDS011;1788;49.400;11.092;2023-06-14T15:38:10;4.23;;;3.97;;
3547;SDS011;1788;49.400;11.092;2023-06-14T15:40:37;4.53;;;3.97;;
3547;SDS011;1788;49.400;11.092;2023-06-14T15:43:03;4.37;;;3.97;;
3547;SDS011;1788;49.400;11.092;2023-06-14T15:45:30;4.40;;;3.53;;